Time;durP1;ratioP1;P1;durP2;ratioP2;P2;SDS_P1;SDS_P2;PMS_P1;PMS_P2;Temp;Humidity;BMP_temperature;BMP_pressure;BME280_temperature;BME280_humidity;BME280_pressure;Samples;Min_cycle;Max_cycle;Signal;HPM_P1;HPM_P2
2022/10/13 00:01:45;;;;;;;3.35;2.08;;;16.40;63.20;;;;;;5070115;28;20056;-74
2022/10/13 00:04:12;;;;;;;2.85;1.95;;;16.40;63.20;;;;;;5070406;28;20055;-74
2022/10/13 00:06:38;;;;;;;3.35;2.05;;;16.40;63.20;;;;;;5071343;28;20071;-73
2022/10/13 00:09:05;;;;;;;3.25;2.08;;;16.40;63.30;;;;;;5070006;28;20048;-73
2022/10/13 00:11:32;;;;;;;3.67;2.60;;;16.40;63.30;;;;;;5069828;28;20052;-73
2022/10/13 00:13:59;;;;;;;3.47;2.30;;;16.40;63.30;;;;;;5069724;28;20428;-74
2022/10/13 00:16:28;;;;;;;3.55;2.00;;;16.30;63.20;;;;;;5070149;28;20056;-74
2022/10/13 00:18:54;;;;;;;4.35;2.30;;;16.30;63.20;;;;;;5070312;28;20060;-74
2022/10/13 00:21:25;;;;;;;3.33;2.00;;;16.30;63.30;;;;;;5069803;28;20056;-74
2022/10/13 00:23:52;;;;;;;3.95;2.10;;;16.30;63.20;;;;;;5071291;28;20567;-74
2022/10/13 00:26:19;;;;;;;3.72;1.98;;;16.30;63.30;;;;;;5069559;28;20140;-74
2022/10/13 00:28:46;;;;;;;3.65;2.38;;;16.30;63.30;;;;;;5069984;28;20052;-74
2022/10/13 00:31:17;;;;;;;3.20;2.15;;;16.30;63.30;;;;;;5069960;28;20486;-73
2022/10/13 00:33:45;;;;;;;3.90;2.30;;;16.30;63.30;;;;;;5070096;28;20482;-74
2022/10/13 00:36:12;;;;;;;4.70;2.10;;;16.30;63.30;;;;;;5071053;28;20051;-74
2022/10/13 00:38:38;;;;;;;3.33;2.50;;;16.20;63.30;;;;;;5069999;28;20057;-74
2022/10/13 00:41:05;;;;;;;3.05;2.10;;;16.20;63.30;;;;;;5069418;28;20131;-74
2022/10/13 00:43:51;;;;;;;5.47;2.17;;;16.20;63.30;;;;;;5070320;28;20048;-74
2022/10/13 00:46:18;;;;;;;3.80;2.00;;;16.30;63.20;;;;;;5070292;28;20057;-74
2022/10/13 00:48:46;;;;;;;4.45;2.47;;;16.20;63.30;;;;;;5073567;28;20060;-74
2022/10/13 00:51:13;;;;;;;3.60;2.30;;;16.20;63.30;;;;;;5073929;28;20413;-73
2022/10/13 00:53:40;;;;;;;3.13;2.30;;;16.20;63.30;;;;;;5073735;28;20083;-74
2022/10/13 00:56:08;;;;;;;3.03;2.00;;;16.20;63.40;;;;;;5073473;28;20061;-74
2022/10/13 00:58:34;;;;;;;2.90;1.90;;;16.20;65.70;;;;;;5073401;28;20062;-73
2022/10/13 01:01:01;;;;;;;3.22;2.20;;;16.20;63.40;;;;;;5072976;28;20057;-73
2022/10/13 01:03:28;;;;;;;2.80;2.17;;;16.20;63.30;;;;;;5073370;28;20156;-74
2022/10/13 01:05:58;;;;;;;2.92;2.30;;;16.20;63.30;;;;;;5072551;28;20054;-74
2022/10/13 01:08:25;;;;;;;3.50;2.17;;;16.20;63.30;;;;;;5072731;28;20063;-73
2022/10/13 01:10:56;;;;;;;2.88;2.25;;;16.20;63.30;;;;;;5073951;28;20072;-73
2022/10/13 01:13:24;;;;;;;4.35;2.20;;;16.20;63.30;;;;;;5072728;28;20127;-74
2022/10/13 01:15:53;;;;;;;2.65;1.95;;;16.20;63.30;;;;;;5073180;28;20131;-74
2022/10/13 01:18:22;;;;;;;3.70;2.20;;;16.20;63.30;;;;;;5072788;28;20063;-74
2022/10/13 01:21:15;;;;;;;3.13;2.38;;;16.20;63.30;;;;;;5072229;28;20055;-74
2022/10/13 01:23:55;;;;;;;3.08;1.92;;;16.20;63.20;;;;;;5068911;28;20084;-74
2022/10/13 01:26:48;;;;;;;4.85;2.30;;;16.20;63.30;;;;;;5072648;28;20134;-74
2022/10/13 01:29:36;;;;;;;2.97;2.30;;;16.20;63.30;;;;;;5072525;28;20386;-74
2022/10/13 01:32:06;;;;;;;2.80;2.30;;;16.20;63.30;;;;;;5055374;28;20052;-74
2022/10/13 01:34:35;;;;;;;3.65;2.25;;;16.10;63.40;;;;;;5072500;28;20063;-74
2022/10/13 01:37:04;;;;;;;2.92;2.28;;;16.10;63.40;;;;;;5072443;28;20060;-74
2022/10/13 01:39:33;;;;;;;2.97;2.08;;;16.10;63.30;;;;;;5072530;28;20052;-74
2022/10/13 01:42:04;;;;;;;3.28;2.15;;;16.10;63.40;;;;;;5072153;28;20135;-74
2022/10/13 01:44:32;;;;;;;2.53;2.20;;;16.10;63.40;;;;;;5072543;28;20064;-74
2022/10/13 01:46:59;;;;;;;4.55;2.28;;;16.10;63.40;;;;;;5072131;28;20076;-74
2022/10/13 01:49:29;;;;;;;2.83;2.20;;;16.10;63.40;;;;;;5071965;28;20504;-74
2022/10/13 01:51:59;;;;;;;3.42;2.20;;;16.10;63.30;;;;;;5071866;28;20379;-75
2022/10/13 01:54:26;;;;;;;3.10;2.10;;;16.10;63.40;;;;;;5072252;28;20052;-74
2022/10/13 01:56:53;;;;;;;3.13;2.38;;;16.10;63.40;;;;;;5072009;28;20127;-74
2022/10/13 01:59:20;;;;;;;3.20;2.20;;;16.10;63.40;;;;;;5071163;28;20402;-74
2022/10/13 02:01:55;;;;;;;3.03;2.25;;;16.10;63.40;;;;;;5071616;28;20424;-74
2022/10/13 02:04:29;;;;;;;3.72;2.20;;;16.10;63.40;;;;;;5071916;28;20389;-74
2022/10/13 02:07:00;;;;;;;5.15;2.40;;;16.10;63.40;;;;;;5073149;28;20113;-74
2022/10/13 02:09:27;;;;;;;2.33;2.08;;;16.10;63.40;;;;;;5071842;28;20052;-74
2022/10/13 02:11:56;;;;;;;4.22;2.50;;;16.00;63.40;;;;;;5071878;28;20091;-74
2022/10/13 02:14:25;;;;;;;4.32;2.20;;;16.00;63.40;;;;;;5071805;28;20045;-74
2022/10/13 02:16:51;;;;;;;4.25;2.50;;;16.00;63.40;;;;;;5071420;28;20446;-74
2022/10/13 02:19:18;;;;;;;3.67;2.60;;;16.00;63.40;;;;;;5072923;28;20045;-74
2022/10/13 02:21:46;;;;;;;3.88;2.50;;;16.00;63.40;;;;;;5072512;28;20078;-74
2022/10/13 02:24:13;;;;;;;4.13;2.47;;;16.00;63.40;;;;;;5071483;28;20060;-74
2022/10/13 02:26:40;;;;;;;3.22;2.53;;;16.00;63.40;;;;;;5071563;28;20060;-74
2022/10/13 02:29:10;;;;;;;2.75;2.28;;;16.00;63.40;;;;;;5071464;28;20131;-74
2022/10/13 02:31:37;;;;;;;3.13;2.10;;;16.00;63.40;;;;;;5071177;28;20052;-74
2022/10/13 02:34:04;;;;;;;4.15;2.67;;;16.00;63.50;;;;;;5071577;28;20056;-74
2022/10/13 02:36:30;;;;;;;3.50;2.50;;;16.00;63.40;;;;;;5071498;28;20514;-74
2022/10/13 02:38:58;;;;;;;2.92;2.25;;;16.00;63.40;;;;;;5071144;28;20054;-74
2022/10/13 02:41:25;;;;;;;2.58;2.20;;;16.00;63.40;;;;;;5072205;28;20417;-74
2022/10/13 02:43:52;;;;;;;4.35;2.60;;;16.00;63.40;;;;;;5071246;28;20056;-74
2022/10/13 02:46:19;;;;;;;4.00;2.60;;;16.00;63.40;;;;;;5071126;28;20052;-74
2022/10/13 02:48:45;;;;;;;3.17;2.38;;;16.00;63.40;;;;;;5070988;28;20577;-74
2022/10/13 02:51:12;;;;;;;3.70;2.40;;;16.00;63.40;;;;;;5070564;28;20055;-74
2022/10/13 02:53:39;;;;;;;4.07;2.50;;;15.90;63.30;;;;;;5071294;28;20139;-74
2022/10/13 02:56:07;;;;;;;3.53;2.35;;;16.00;63.40;;;;;;5072264;28;20394;-74
2022/10/13 02:58:34;;;;;;;3.47;2.35;;;16.00;63.40;;;;;;5070445;28;20078;-74
2022/10/13 03:01:05;;;;;;;3.67;2.70;;;16.00;63.40;;;;;;5070596;28;20477;-74
2022/10/13 03:03:32;;;;;;;3.67;2.58;;;16.00;63.40;;;;;;5071196;28;20144;-74
2022/10/13 03:05:59;;;;;;;3.13;2.30;;;15.90;63.40;;;;;;5071929;28;20071;-74
2022/10/13 03:08:26;;;;;;;3.28;2.50;;;16.00;63.50;;;;;;5071163;28;20106;-74
2022/10/13 03:10:53;;;;;;;2.70;2.17;;;15.90;63.40;;;;;;5069338;28;20049;-74
2022/10/13 03:13:21;;;;;;;2.97;2.22;;;15.90;63.40;;;;;;5070606;28;20056;-74
2022/10/13 03:15:47;;;;;;;3.33;2.60;;;15.90;63.40;;;;;;5070628;28;20059;-74
2022/10/13 03:18:14;;;;;;;3.50;2.50;;;15.90;63.40;;;;;;5070960;28;20062;-74
2022/10/13 03:20:41;;;;;;;4.15;2.50;;;15.90;63.40;;;;;;5070742;28;20053;-74
2022/10/13 03:23:07;;;;;;;3.85;2.58;;;15.90;63.40;;;;;;5070633;28;20056;-74
2022/10/13 03:25:34;;;;;;;3.25;2.35;;;15.90;63.40;;;;;;5070980;28;20052;-74
2022/10/13 03:28:01;;;;;;;4.80;2.80;;;15.90;63.40;;;;;;5070651;28;20060;-74
2022/10/13 03:30:29;;;;;;;3.22;2.53;;;15.90;63.40;;;;;;5070128;28;20053;-74
2022/10/13 03:32:56;;;;;;;3.75;2.50;;;15.90;63.30;;;;;;5070620;28;20059;-74
2022/10/13 03:35:22;;;;;;;3.13;2.38;;;15.90;63.30;;;;;;5070791;28;20056;-74
2022/10/13 03:37:49;;;;;;;4.38;2.60;;;15.90;63.30;;;;;;5070396;28;20086;-74
2022/10/13 03:40:16;;;;;;;4.07;2.40;;;15.90;63.90;;;;;;5070176;28;20052;-74
2022/10/13 03:42:42;;;;;;;3.08;2.40;;;15.90;63.30;;;;;;5070176;28;20048;-74
2022/10/13 03:45:10;;;;;;;3.50;2.50;;;15.90;63.30;;;;;;5070596;28;20055;-74
2022/10/13 03:47:38;;;;;;;3.13;2.40;;;15.90;63.30;;;;;;5070644;28;20400;-74
2022/10/13 03:50:05;;;;;;;3.80;2.53;;;15.90;63.30;;;;;;5069986;28;20084;-74
2022/10/13 03:52:32;;;;;;;3.95;2.60;;;15.90;63.30;;;;;;5070421;28;20056;-74
2022/10/13 03:54:58;;;;;;;3.13;2.60;;;15.90;63.30;;;;;;5070573;28;20048;-74
2022/10/13 03:57:25;;;;;;;4.43;2.58;;;15.90;63.30;;;;;;5070341;28;20082;-74
2022/10/13 03:59:54;;;;;;;3.35;2.58;;;15.90;63.30;;;;;;5071363;28;20048;-74
2022/10/13 04:02:21;;;;;;;4.15;2.60;;;15.90;63.30;;;;;;5069758;28;20049;-74
2022/10/13 04:04:49;;;;;;;3.30;2.50;;;15.90;63.30;;;;;;5071655;28;20148;-74
2022/10/13 04:07:16;;;;;;;3.55;2.60;;;15.90;63.30;;;;;;5070279;28;20060;-74
2022/10/13 04:09:43;;;;;;;3.63;2.78;;;15.90;63.40;;;;;;5071074;28;20405;-74
2022/10/13 04:12:09;;;;;;;3.05;2.30;;;15.90;63.40;;;;;;5069500;28;20048;-74
2022/10/13 04:14:36;;;;;;;3.15;2.58;;;15.90;63.30;;;;;;5070290;28;20056;-74
2022/10/13 04:17:03;;;;;;;4.95;2.53;;;15.90;63.40;;;;;;5070322;28;20409;-74
2022/10/13 04:19:29;;;;;;;4.65;2.70;;;15.80;63.30;;;;;;5069972;28;20056;-74
2022/10/13 04:21:57;;;;;;;2.97;2.20;;;15.90;63.40;;;;;;5071666;28;20058;-74
2022/10/13 04:24:24;;;;;;;5.07;2.60;;;15.80;63.30;;;;;;5073198;28;20413;-74
2022/10/13 04:26:51;;;;;;;3.13;2.40;;;15.80;63.40;;;;;;5073685;28;20057;-74
2022/10/13 04:29:18;;;;;;;3.47;2.60;;;15.80;63.40;;;;;;5074936;28;20078;-74
2022/10/13 04:31:44;;;;;;;4.22;2.65;;;15.80;63.40;;;;;;5074673;28;20055;-74
2022/10/13 04:34:11;;;;;;;3.70;2.60;;;15.80;63.40;;;;;;5073730;28;20052;-74
2022/10/13 04:36:38;;;;;;;2.85;2.30;;;15.80;63.30;;;;;;5073476;28;20082;-74
2022/10/13 04:39:06;;;;;;;2.97;2.50;;;15.80;63.30;;;;;;5073689;28;20059;-75
2022/10/13 04:41:33;;;;;;;4.32;2.97;;;15.80;63.40;;;;;;5073832;28;20048;-74
2022/10/13 04:44:01;;;;;;;4.53;2.47;;;15.80;63.40;;;;;;5072487;28;20048;-74
2022/10/13 04:46:27;;;;;;;4.57;2.70;;;15.80;63.40;;;;;;5073576;28;20059;-74
2022/10/13 04:48:54;;;;;;;3.88;2.58;;;15.80;63.40;;;;;;5073307;28;20055;-74
2022/10/13 04:51:22;;;;;;;3.22;2.67;;;15.80;63.40;;;;;;5072992;28;20075;-74
2022/10/13 04:53:48;;;;;;;3.30;2.67;;;15.80;63.40;;;;;;5073437;28;20416;-74
2022/10/13 04:56:17;;;;;;;4.28;2.65;;;15.80;63.40;;;;;;5073256;28;20096;-74
2022/10/13 04:58:44;;;;;;;3.13;2.50;;;15.80;63.40;;;;;;5053379;28;20147;-75
2022/10/13 05:01:12;;;;;;;4.00;2.85;;;15.80;63.40;;;;;;5052970;28;20048;-74
2022/10/13 05:03:39;;;;;;;4.05;2.67;;;15.80;63.40;;;;;;5053257;28;20063;-74
2022/10/13 05:06:06;;;;;;;4.03;2.90;;;15.80;63.40;;;;;;5054761;28;20057;-75
2022/10/13 05:08:34;;;;;;;3.80;2.67;;;15.80;63.90;;;;;;5074340;28;20047;-74
2022/10/13 05:11:01;;;;;;;3.20;2.60;;;15.80;63.40;;;;;;5072200;28;20079;-73
2022/10/13 05:13:29;;;;;;;3.05;2.65;;;15.80;63.60;;;;;;5053199;28;20049;-73
2022/10/13 05:15:56;;;;;;;3.75;2.63;;;15.80;63.40;;;;;;5053851;28;20053;-74
2022/10/13 05:18:23;;;;;;;3.13;2.63;;;15.80;63.40;;;;;;5054116;28;20049;-75
2022/10/13 05:20:49;;;;;;;3.17;2.60;;;15.80;63.40;;;;;;5053865;28;20445;-74
2022/10/13 05:23:16;;;;;;;3.33;2.53;;;15.80;63.40;;;;;;5052885;28;20059;-74
2022/10/13 05:25:43;;;;;;;4.15;2.90;;;15.80;63.40;;;;;;5060188;28;20403;-74
2022/10/13 05:28:09;;;;;;;4.10;2.47;;;15.80;63.40;;;;;;5072819;28;20140;-74
2022/10/13 05:30:37;;;;;;;3.42;2.58;;;15.80;63.40;;;;;;5072643;28;20405;-74
2022/10/13 05:33:04;;;;;;;3.05;2.53;;;15.80;63.40;;;;;;5071711;28;20055;-74
2022/10/13 05:35:31;;;;;;;4.65;2.80;;;15.80;63.40;;;;;;5073808;28;20051;-74
2022/10/13 05:37:57;;;;;;;4.35;2.67;;;15.80;63.40;;;;;;5072462;28;20421;-74
2022/10/13 05:40:27;;;;;;;3.38;2.42;;;15.80;63.40;;;;;;5071937;28;20049;-74
2022/10/13 05:42:53;;;;;;;3.28;2.60;;;15.80;63.40;;;;;;5072529;28;20048;-74
2022/10/13 05:45:20;;;;;;;3.58;2.33;;;15.70;63.40;;;;;;5072609;28;20052;-74
2022/10/13 05:47:48;;;;;;;3.65;2.53;;;15.80;63.50;;;;;;5072421;28;20062;-74
2022/10/13 05:50:15;;;;;;;3.17;2.45;;;15.80;63.40;;;;;;5071983;28;20094;-74
2022/10/13 05:52:42;;;;;;;3.13;2.45;;;15.80;63.40;;;;;;5072158;28;20052;-74
2022/10/13 05:55:09;;;;;;;3.72;2.55;;;15.80;63.40;;;;;;5073121;28;20049;-74
2022/10/13 05:57:37;;;;;;;2.67;2.30;;;15.80;63.40;;;;;;5071937;28;20062;-74
2022/10/13 06:00:05;;;;;;;3.00;2.40;;;15.80;63.40;;;;;;5071973;28;20059;-74
2022/10/13 06:02:34;;;;;;;3.33;2.47;;;15.80;63.40;;;;;;5071890;28;20144;-74
2022/10/13 06:05:02;;;;;;;3.63;2.60;;;15.80;63.40;;;;;;5071949;28;20135;-74
2022/10/13 06:07:29;;;;;;;3.58;2.65;;;15.80;63.40;;;;;;5073158;28;20052;-74
2022/10/13 06:09:56;;;;;;;3.15;2.20;;;15.80;63.40;;;;;;5071386;28;20049;-74
2022/10/13 06:12:23;;;;;;;5.15;2.90;;;15.80;63.40;;;;;;5071625;28;20058;-74
2022/10/13 06:14:50;;;;;;;3.97;2.72;;;15.80;65.80;;;;;;5072043;28;20064;-74
2022/10/13 06:17:16;;;;;;;3.33;2.40;;;15.80;63.40;;;;;;5071913;28;20099;-74
2022/10/13 06:19:44;;;;;;;3.72;2.40;;;15.80;63.40;;;;;;5071768;28;20405;-74
2022/10/13 06:22:12;;;;;;;3.53;2.40;;;15.80;63.40;;;;;;5071389;28;20083;-74
2022/10/13 06:24:38;;;;;;;5.40;3.13;;;15.80;63.50;;;;;;5072514;28;20408;-74
2022/10/13 06:27:05;;;;;;;3.17;2.30;;;15.80;63.50;;;;;;5071362;28;20063;-74
2022/10/13 06:29:32;;;;;;;3.95;2.47;;;15.80;63.50;;;;;;5071511;28;20052;-74
2022/10/13 06:31:59;;;;;;;3.40;2.78;;;15.70;63.50;;;;;;5071066;28;20048;-73
2022/10/13 06:34:26;;;;;;;3.88;2.58;;;15.70;63.50;;;;;;5071597;28;20074;-73
2022/10/13 06:36:52;;;;;;;4.50;2.78;;;15.70;63.50;;;;;;5070937;28;20059;-73
2022/10/13 06:39:20;;;;;;;4.63;2.92;;;15.70;63.50;;;;;;5071211;28;20080;-73
2022/10/13 06:41:47;;;;;;;3.60;2.45;;;15.70;63.50;;;;;;5070652;28;20131;-73
2022/10/13 06:44:14;;;;;;;4.28;2.80;;;15.70;63.50;;;;;;5071291;28;20057;-73
2022/10/13 06:46:40;;;;;;;3.58;2.72;;;15.70;63.50;;;;;;5071451;28;20171;-73
2022/10/13 06:49:09;;;;;;;2.72;2.40;;;15.70;63.50;;;;;;5071099;28;20063;-74
2022/10/13 06:51:35;;;;;;;3.08;2.30;;;15.80;63.50;;;;;;5070743;28;20486;-74
2022/10/13 06:54:02;;;;;;;4.22;2.50;;;15.80;63.50;;;;;;5071023;28;20058;-74
2022/10/13 06:56:31;;;;;;;3.92;2.22;;;15.80;63.50;;;;;;5071371;28;20139;-74
2022/10/13 06:58:58;;;;;;;3.75;2.55;;;15.80;63.50;;;;;;5070717;28;20058;-74
2022/10/13 07:01:25;;;;;;;3.17;2.40;;;15.80;63.50;;;;;;5070989;28;20382;-74
2022/10/13 07:03:51;;;;;;;3.92;2.65;;;15.80;63.50;;;;;;5070951;28;20052;-74
2022/10/13 07:06:18;;;;;;;4.05;3.05;;;15.80;63.40;;;;;;5070654;28;20063;-74
2022/10/13 07:08:45;;;;;;;4.82;2.78;;;15.80;63.40;;;;;;5070954;28;20064;-74
2022/10/13 07:11:12;;;;;;;3.63;2.70;;;15.90;63.40;;;;;;5070632;28;20127;-74
2022/10/13 07:13:41;;;;;;;4.78;2.85;;;15.90;63.40;;;;;;5070949;28;20052;-74
2022/10/13 07:16:08;;;;;;;4.43;2.65;;;16.00;63.40;;;;;;5070973;28;20060;-73
2022/10/13 07:18:35;;;;;;;3.92;2.60;;;16.00;63.30;;;;;;5070538;28;20056;-73
2022/10/13 07:21:02;;;;;;;4.47;2.70;;;16.10;63.30;;;;;;5070631;28;20055;-73
2022/10/13 07:23:29;;;;;;;5.25;2.70;;;16.10;63.20;;;;;;5070785;28;20052;-73
2022/10/13 07:25:56;;;;;;;4.10;2.63;;;16.20;63.20;;;;;;5072035;28;20052;-73
2022/10/13 07:28:22;;;;;;;5.65;2.63;;;16.20;63.10;;;;;;5070854;28;20052;-73
2022/10/13 07:30:51;;;;;;;4.25;2.60;;;16.20;63.00;;;;;;5069609;28;20135;-73
2022/10/13 07:33:17;;;;;;;4.18;2.50;;;16.30;62.90;;;;;;5071700;28;20066;-73
2022/10/13 07:35:44;;;;;;;4.10;2.50;;;16.30;62.90;;;;;;5070561;28;20059;-73
2022/10/13 07:38:11;;;;;;;4.38;2.97;;;16.40;62.90;;;;;;5070650;28;20056;-73
2022/10/13 07:40:38;;;;;;;3.85;2.55;;;16.40;62.80;;;;;;5070517;28;20135;-74
2022/10/13 07:43:04;;;;;;;4.70;2.72;;;16.40;62.70;;;;;;5070374;28;20083;-73
2022/10/13 07:45:31;;;;;;;4.03;2.50;;;16.50;62.80;;;;;;5070688;28;20498;-74
2022/10/13 07:47:59;;;;;;;3.58;2.42;;;16.50;62.70;;;;;;5069822;28;20135;-73
2022/10/13 07:50:26;;;;;;;4.07;2.63;;;16.50;62.70;;;;;;5069861;28;20052;-73
2022/10/13 07:52:53;;;;;;;4.57;2.60;;;16.50;62.60;;;;;;5069851;28;20409;-73
2022/10/13 07:55:19;;;;;;;4.30;2.55;;;16.60;62.70;;;;;;5069304;28;20064;-73
2022/10/13 07:57:46;;;;;;;3.97;2.50;;;16.50;63.10;;;;;;5073481;28;20139;-74
2022/10/13 08:00:13;;;;;;;5.05;2.75;;;16.60;62.60;;;;;;5073119;28;20055;-73
2022/10/13 08:02:40;;;;;;;4.25;2.40;;;16.60;62.60;;;;;;5073173;28;20052;-73
2022/10/13 08:05:08;;;;;;;4.35;2.67;;;16.70;62.60;;;;;;5073758;28;20428;-74
2022/10/13 08:07:36;;;;;;;3.53;2.60;;;16.80;62.70;;;;;;5074885;28;20451;-72
2022/10/13 08:10:04;;;;;;;4.95;2.70;;;16.80;62.70;;;;;;5073897;28;20053;-72
2022/10/13 08:12:35;;;;;;;2.95;2.35;;;16.80;62.60;;;;;;5075663;28;20040;-72
2022/10/13 08:15:02;;;;;;;5.38;2.50;;;16.80;62.50;;;;;;5074427;28;20076;-72
2022/10/13 08:17:28;;;;;;;5.28;2.63;;;16.90;62.50;;;;;;5075128;28;20124;-72
2022/10/13 08:19:55;;;;;;;4.78;2.60;;;16.90;62.50;;;;;;5074036;28;20052;-72
2022/10/13 08:22:23;;;;;;;3.30;2.33;;;16.90;62.40;;;;;;5073396;28;20113;-72
2022/10/13 08:24:50;;;;;;;5.80;2.83;;;16.90;62.40;;;;;;5074196;28;20469;-72
2022/10/13 08:27:19;;;;;;;4.22;2.45;;;16.90;62.40;;;;;;5075208;28;20052;-72
2022/10/13 08:29:46;;;;;;;3.42;2.33;;;16.90;62.40;;;;;;5074008;28;20052;-72
2022/10/13 08:32:12;;;;;;;5.93;2.22;;;16.90;62.40;;;;;;5073620;28;20044;-72
2022/10/13 08:34:39;;;;;;;3.50;2.65;;;16.90;62.40;;;;;;5074013;28;20214;-72
2022/10/13 08:37:06;;;;;;;4.65;2.42;;;17.00;62.40;;;;;;5074822;28;20043;-72
2022/10/13 08:39:34;;;;;;;3.35;2.22;;;17.00;62.40;;;;;;5073799;28;20052;-72
2022/10/13 08:42:00;;;;;;;3.72;2.53;;;17.00;62.40;;;;;;5073777;28;20375;-72
2022/10/13 08:44:30;;;;;;;2.70;2.25;;;17.00;62.40;;;;;;5073427;28;20055;-72
2022/10/13 08:46:59;;;;;;;3.13;2.25;;;17.00;62.40;;;;;;5074208;28;20374;-72
2022/10/13 08:49:26;;;;;;;3.00;2.10;;;17.00;62.40;;;;;;5073682;28;20139;-72
2022/10/13 08:51:53;;;;;;;3.22;2.40;;;17.00;62.30;;;;;;5073241;28;20048;-75
2022/10/13 08:54:20;;;;;;;3.50;2.30;;;17.00;62.30;;;;;;5072857;28;20064;-74
2022/10/13 08:56:49;;;;;;;3.63;2.33;;;17.10;62.40;;;;;;5072482;28;20135;-74
2022/10/13 08:59:17;;;;;;;3.65;2.30;;;17.80;63.00;;;;;;5073126;28;20668;-74
2022/10/13 09:01:47;;;;;;;3.22;2.45;;;17.10;62.30;;;;;;5072515;28;20087;-74
2022/10/13 09:04:23;;;;;;;4.32;2.40;;;17.20;62.40;;;;;;5070405;28;20095;-74
2022/10/13 09:06:52;;;;;;;4.03;2.22;;;17.20;62.30;;;;;;5072938;28;20056;-74
2022/10/13 09:09:19;;;;;;;4.05;2.40;;;17.20;62.30;;;;;;5072328;28;20052;-74
2022/10/13 09:11:48;;;;;;;3.08;2.28;;;17.20;62.30;;;;;;5072684;28;20402;-74
2022/10/13 09:14:20;;;;;;;3.17;2.08;;;17.20;62.20;;;;;;5070285;28;20098;-74
2022/10/13 09:16:47;;;;;;;3.00;2.38;;;17.30;62.20;;;;;;5077847;28;20080;-74
2022/10/13 09:19:23;;;;;;;2.70;2.05;;;17.30;62.20;;;;;;5070044;28;20143;-74
2022/10/13 09:21:50;;;;;;;2.83;2.17;;;17.30;62.20;;;;;;5068693;28;20124;-74
2022/10/13 09:24:19;;;;;;;2.70;1.95;;;17.40;62.20;;;;;;5071832;28;20135;-74
2022/10/13 09:26:48;;;;;;;3.17;2.08;;;17.40;62.10;;;;;;5072035;28;20062;-73
2022/10/13 09:29:17;;;;;;;2.60;2.10;;;17.40;62.00;;;;;;5071694;28;20079;-73
2022/10/13 09:31:44;;;;;;;2.53;1.90;;;17.40;62.00;;;;;;5070865;28;20056;-73
2022/10/13 09:34:14;;;;;;;2.50;2.00;;;17.50;62.00;;;;;;5071366;28;20053;-73
2022/10/13 09:36:56;;;;;;;3.00;2.13;;;17.50;62.00;;;;;;5073368;28;20036;-73
2022/10/13 09:39:22;;;;;;;3.03;2.30;;;17.50;61.90;;;;;;5071620;28;21546;-73
2022/10/13 09:41:50;;;;;;;3.22;1.98;;;17.40;62.00;;;;;;5070468;28;20135;-73
2022/10/13 09:44:18;;;;;;;3.83;2.30;;;17.50;62.00;;;;;;5072630;28;20052;-74
2022/10/13 09:46:50;;;;;;;2.63;2.05;;;17.50;62.00;;;;;;5071905;28;20398;-74
2022/10/13 09:49:37;;;;;;;2.97;2.20;;;17.50;62.00;;;;;;5072448;28;20139;-74
2022/10/13 09:52:04;;;;;;;2.80;2.05;;;17.40;62.00;;;;;;5070835;28;20563;-74
2022/10/13 09:54:42;;;;;;;2.92;2.22;;;17.50;62.10;;;;;;5071121;28;20056;-74
2022/10/13 09:57:15;;;;;;;2.67;1.90;;;17.50;62.10;;;;;;5071929;28;20062;-74
2022/10/13 09:59:45;;;;;;;3.03;2.25;;;17.40;62.20;;;;;;5072433;28;20066;-74
2022/10/13 10:02:19;;;;;;;2.83;2.00;;;17.40;62.20;;;;;;5071664;28;20044;-74
2022/10/13 10:04:45;;;;;;;2.78;2.15;;;17.40;62.20;;;;;;5072469;28;20056;-74
2022/10/13 10:07:14;;;;;;;3.15;2.15;;;17.40;62.30;;;;;;5071885;28;20060;-74
2022/10/13 10:09:44;;;;;;;3.05;2.20;;;17.30;62.20;;;;;;5072069;28;20056;-74
2022/10/13 10:12:14;;;;;;;3.15;2.30;;;17.30;62.20;;;;;;5072609;28;20053;-74
2022/10/13 10:14:40;;;;;;;2.70;2.03;;;17.30;62.30;;;;;;5071307;28;20147;-74
2022/10/13 10:17:14;;;;;;;2.60;2.15;;;17.30;62.30;;;;;;5067753;28;20071;-74
2022/10/13 10:19:48;;;;;;;2.40;1.92;;;17.30;62.30;;;;;;5070523;28;20055;-74
2022/10/13 10:22:19;;;;;;;4.38;2.20;;;17.30;62.30;;;;;;5068650;28;20058;-74
2022/10/13 10:24:48;;;;;;;2.78;2.15;;;17.30;62.40;;;;;;5071459;28;20136;-74
2022/10/13 10:27:17;;;;;;;3.13;1.95;;;17.20;62.40;;;;;;5071427;28;20063;-74
2022/10/13 10:29:46;;;;;;;3.33;2.33;;;17.20;62.40;;;;;;5069125;28;20048;-74
2022/10/13 10:32:21;;;;;;;3.15;2.33;;;17.20;62.40;;;;;;5070988;28;20052;-74
2022/10/13 10:34:51;;;;;;;2.90;2.20;;;17.20;62.50;;;;;;5069536;28;20044;-74
2022/10/13 10:37:19;;;;;;;4.07;2.30;;;17.20;62.50;;;;;;5072969;28;20471;-74
2022/10/13 10:39:48;;;;;;;3.28;2.15;;;17.20;62.60;;;;;;5070388;28;20049;-74
2022/10/13 10:42:37;;;;;;;3.80;2.40;;;17.20;62.60;;;;;;5070842;28;20053;-75
2022/10/13 10:45:05;;;;;;;2.63;2.10;;;17.20;62.70;;;;;;5070999;28;20450;-75
2022/10/13 10:47:36;;;;;;;2.88;2.30;;;17.10;62.70;;;;;;5071575;28;20061;-75
2022/10/13 10:50:04;;;;;;;3.10;2.30;;;17.20;62.60;;;;;;5072258;28;20048;-75
2022/10/13 10:52:35;;;;;;;3.08;2.13;;;17.10;62.60;;;;;;5071232;28;20056;-75
2022/10/13 10:55:07;;;;;;;2.40;2.00;;;17.20;62.70;;;;;;5071217;28;20135;-75
2022/10/13 10:57:38;;;;;;;3.35;2.20;;;17.20;62.70;;;;;;5071168;28;20482;-74
2022/10/13 11:00:06;;;;;;;2.75;2.20;;;17.20;62.80;;;;;;5070861;28;20052;-74
2022/10/13 11:02:41;;;;;;;3.13;2.20;;;17.20;62.80;;;;;;5071046;28;20139;-74
2022/10/13 11:05:08;;;;;;;4.30;2.35;;;17.10;62.70;;;;;;5069356;28;20558;-74
2022/10/13 11:07:54;;;;;;;3.13;2.22;;;17.20;62.80;;;;;;5070465;28;20062;-74
2022/10/13 11:10:21;;;;;;;2.92;2.08;;;17.20;62.70;;;;;;5070807;28;20130;-74
2022/10/13 11:13:15;;;;;;;3.40;2.58;;;17.10;62.70;;;;;;5070936;28;20049;-74
2022/10/13 11:15:43;;;;;;;3.33;2.08;;;17.20;63.20;;;;;;5071931;28;20454;-74
2022/10/13 11:18:47;;;;;;;3.05;2.15;;;17.10;62.80;;;;;;5070893;28;20543;-74
2022/10/13 11:21:13;;;;;;;3.08;2.00;;;17.10;62.70;;;;;;5070039;28;20501;-75
2022/10/13 11:23:44;;;;;;;3.15;2.05;;;17.10;62.80;;;;;;5070561;28;20056;-75
2022/10/13 11:26:41;;;;;;;2.72;2.10;;;17.10;62.80;;;;;;5070818;28;20056;-75
2022/10/13 11:29:18;;;;;;;2.53;2.17;;;17.10;62.70;;;;;;5071626;28;20498;-75
2022/10/13 11:31:50;;;;;;;2.67;2.35;;;17.10;62.80;;;;;;5069599;28;20052;-75
2022/10/13 11:34:30;;;;;;;3.55;2.38;;;17.00;62.80;;;;;;5068911;28;20044;-75
2022/10/13 11:36:58;;;;;;;2.47;2.05;;;17.00;62.70;;;;;;5069897;28;20060;-75
2022/10/13 11:39:59;;;;;;;3.67;2.17;;;17.00;62.80;;;;;;5069886;28;20051;-75
2022/10/13 11:42:36;;;;;;;2.15;1.85;;;17.00;62.70;;;;;;5070534;28;20052;-75
2022/10/13 11:45:12;;;;;;;2.92;2.25;;;17.00;62.80;;;;;;5071899;28;20123;-75
2022/10/13 11:48:11;;;;;;;2.90;2.00;;;17.00;62.80;;;;;;5070211;28;20083;-75
2022/10/13 11:50:40;;;;;;;2.95;2.05;;;17.00;62.80;;;;;;5026389;28;20056;-75
2022/10/13 11:53:11;;;;;;;3.33;2.33;;;16.90;62.90;;;;;;5067220;28;20041;-75
2022/10/13 11:55:43;;;;;;;2.70;2.25;;;16.90;62.80;;;;;;5069386;28;20052;-75
2022/10/13 11:58:12;;;;;;;2.70;2.10;;;16.90;62.80;;;;;;5070184;28;20053;-75
2022/10/13 12:00:50;;;;;;;2.95;2.15;;;16.90;62.80;;;;;;5067264;28;20135;-75
2022/10/13 12:03:21;;;;;;;2.45;1.88;;;16.90;62.80;;;;;;5069804;28;20135;-75
2022/10/13 12:05:48;;;;;;;2.92;2.00;;;16.90;62.80;;;;;;5071126;28;20048;-75
2022/10/13 12:08:15;;;;;;;3.22;2.00;;;16.90;62.90;;;;;;5070175;28;20080;-75
2022/10/13 12:10:41;;;;;;;2.78;2.20;;;16.90;62.80;;;;;;5069184;28;20139;-74
2022/10/13 12:13:15;;;;;;;2.75;2.15;;;16.90;62.80;;;;;;5068775;28;20040;-74
2022/10/13 12:15:44;;;;;;;3.10;2.30;;;16.90;62.90;;;;;;5068033;28;20500;-74
2022/10/13 12:18:21;;;;;;;5.20;2.13;;;16.90;62.90;;;;;;5069833;28;20058;-74
2022/10/13 12:20:52;;;;;;;2.60;2.05;;;16.90;62.80;;;;;;5068491;28;20118;-74
2022/10/13 12:23:19;;;;;;;2.10;1.90;;;16.90;63.00;;;;;;5066860;28;20055;-76
2022/10/13 12:25:47;;;;;;;2.63;2.00;;;16.90;62.90;;;;;;5070042;28;20055;-76
2022/10/13 12:28:17;;;;;;;2.55;1.98;;;16.90;62.90;;;;;;5069965;28;20067;-76
2022/10/13 12:30:50;;;;;;;3.13;2.30;;;16.90;62.90;;;;;;5069962;28;20690;-75
2022/10/13 12:33:22;;;;;;;3.47;2.05;;;16.80;62.90;;;;;;5069472;28;20059;-75
2022/10/13 12:35:49;;;;;;;3.20;2.28;;;16.80;62.90;;;;;;5069647;28;20456;-75
2022/10/13 12:38:17;;;;;;;2.72;2.00;;;16.80;62.90;;;;;;5069570;28;20053;-75
2022/10/13 12:40:44;;;;;;;2.17;1.98;;;16.80;63.00;;;;;;5069302;28;20080;-73
2022/10/13 12:43:11;;;;;;;3.10;1.95;;;16.80;63.00;;;;;;5069527;28;20055;-75
2022/10/13 12:45:38;;;;;;;2.67;2.03;;;16.80;63.00;;;;;;5073732;28;20063;-75
2022/10/13 12:48:06;;;;;;;3.13;2.20;;;16.80;63.00;;;;;;5073052;28;20044;-75
2022/10/13 12:50:37;;;;;;;2.20;1.90;;;16.80;63.00;;;;;;5072940;28;20059;-75
2022/10/13 12:53:12;;;;;;;2.85;2.10;;;16.80;63.00;;;;;;5073323;28;20119;-76
2022/10/13 12:55:47;;;;;;;2.42;2.05;;;16.80;63.00;;;;;;5073601;28;20136;-75
2022/10/13 12:58:18;;;;;;;2.67;2.03;;;16.80;63.00;;;;;;5073381;28;20064;-75